aviador You're here:

KQBF Decoded Metar

in
Report Time2017-07-26 05:56:00
UTC Time2017-07-26 06:32:42
Flight Rules vfr VFR
WindVRB at 05 kt
Visibility9999 m
Phenomena:N/A
Clouds:Overcast 130 Hf
Expected CloudBase > 1,200 ft AGL from Temp-Dew spread
Ceiling13,000 ft
Temp23°C
Dew Point20°C (83% RH)
QNH1012 hPa
Raw Report
METAR KQBF 260556Z AUTO VRB05KT 9999 OVC130 23/20 A2987 RMK AO2 SLPNO
WND DATA ESTMD 60176 T02310198 10234 20218=

Extra information for KQBF:More info

Social comments